sensor_id;sensor_type;location;lat;lon;timestamp;temperature;humidity
20398;DHT22;10358;49.590;11.030;2022-08-21T00:00:52;17.70;99.90
20398;DHT22;10358;49.590;11.030;2022-08-21T00:03:18;17.70;99.90
20398;DHT22;10358;49.590;11.030;2022-08-21T00:05:46;17.60;99.90
20398;DHT22;10358;49.590;11.030;2022-08-21T00:08:12;17.60;99.90
20398;DHT22;10358;49.590;11.030;2022-08-21T00:10:39;17.60;99.90
20398;DHT22;10358;49.590;11.030;2022-08-21T00:13:06;17.50;99.90
20398;DHT22;10358;49.590;11.030;2022-08-21T00:15:33;17.50;99.90
20398;DHT22;10358;49.590;11.030;2022-08-21T00:17:59;17.50;99.90
20398;DHT22;10358;49.590;11.030;2022-08-21T00:20:25;17.50;99.90
20398;DHT22;10358;49.590;11.030;2022-08-21T00:22:51;17.50;99.90
20398;DHT22;10358;49.590;11.030;2022-08-21T00:25:18;17.50;99.90
20398;DHT22;10358;49.590;11.030;2022-08-21T00:27:44;17.50;99.90
20398;DHT22;10358;49.590;11.030;2022-08-21T00:30:13;17.40;99.90
20398;DHT22;10358;49.590;11.030;2022-08-21T00:32:39;17.40;99.90
20398;DHT22;10358;49.590;11.030;2022-08-21T00:35:14;17.40;99.90
20398;DHT22;10358;49.590;11.030;2022-08-21T00:37:40;17.30;99.90
20398;DHT22;10358;49.590;11.030;2022-08-21T00:40:09;17.30;99.90
20398;DHT22;10358;49.590;11.030;2022-08-21T00:42:35;17.20;99.90
20398;DHT22;10358;49.590;11.030;2022-08-21T00:45:01;17.20;99.90
20398;DHT22;10358;49.590;11.030;2022-08-21T00:47:27;17.30;99.90
20398;DHT22;10358;49.590;11.030;2022-08-21T00:49:53;17.30;99.90
20398;DHT22;10358;49.590;11.030;2022-08-21T00:52:25;17.30;99.90
20398;DHT22;10358;49.590;11.030;2022-08-21T00:54:52;17.30;99.90
20398;DHT22;10358;49.590;11.030;2022-08-21T00:57:26;17.30;99.90
20398;DHT22;10358;49.590;11.030;2022-08-21T00:59:55;17.30;99.90
20398;DHT22;10358;49.590;11.030;2022-08-21T01:02:21;17.30;99.90
20398;DHT22;10358;49.590;11.030;2022-08-21T01:04:47;17.30;99.90
20398;DHT22;10358;49.590;11.030;2022-08-21T01:07:13;17.30;99.90
20398;DHT22;10358;49.590;11.030;2022-08-21T01:09:39;17.30;99.90
20398;DHT22;10358;49.590;11.030;2022-08-21T01:12:06;17.30;99.90
20398;DHT22;10358;49.590;11.030;2022-08-21T01:14:33;17.40;99.90
20398;DHT22;10358;49.590;11.030;2022-08-21T01:16:59;17.50;99.90
20398;DHT22;10358;49.590;11.030;2022-08-21T01:19:26;17.50;99.90
20398;DHT22;10358;49.590;11.030;2022-08-21T01:21:51;17.50;99.90
20398;DHT22;10358;49.590;11.030;2022-08-21T01:24:17;17.50;99.90
20398;DHT22;10358;49.590;11.030;2022-08-21T01:26:44;17.50;99.90
20398;DHT22;10358;49.590;11.030;2022-08-21T01:29:34;17.50;99.90
20398;DHT22;10358;49.590;11.030;2022-08-21T01:32:12;17.40;99.90
20398;DHT22;10358;49.590;11.030;2022-08-21T01:34:41;17.40;99.90
20398;DHT22;10358;49.590;11.030;2022-08-21T01:37:08;17.40;99.90
20398;DHT22;10358;49.590;11.030;2022-08-21T01:39:34;17.40;99.90
20398;DHT22;10358;49.590;11.030;2022-08-21T01:42:00;17.20;99.90
20398;DHT22;10358;49.590;11.030;2022-08-21T01:44:25;17.10;99.90
20398;DHT22;10358;49.590;11.030;2022-08-21T01:46:51;17.00;99.90
20398;DHT22;10358;49.590;11.030;2022-08-21T01:49:17;16.90;99.90
20398;DHT22;10358;49.590;11.030;2022-08-21T01:51:43;16.90;99.90
20398;DHT22;10358;49.590;11.030;2022-08-21T01:54:09;16.80;99.90
20398;DHT22;10358;49.590;11.030;2022-08-21T01:56:43;16.80;99.90
20398;DHT22;10358;49.590;11.030;2022-08-21T01:59:10;16.80;99.90
20398;DHT22;10358;49.590;11.030;2022-08-21T02:01:36;16.90;99.90
20398;DHT22;10358;49.590;11.030;2022-08-21T02:04:02;17.00;99.90
20398;DHT22;10358;49.590;11.030;2022-08-21T02:06:28;17.10;99.90
20398;DHT22;10358;49.590;11.030;2022-08-21T02:08:53;17.10;99.90
20398;DHT22;10358;49.590;11.030;2022-08-21T02:11:19;17.10;99.90
20398;DHT22;10358;49.590;11.030;2022-08-21T02:13:45;17.10;99.90
20398;DHT22;10358;49.590;11.030;2022-08-21T02:16:12;17.10;99.90
20398;DHT22;10358;49.590;11.030;2022-08-21T02:18:38;17.10;99.90
20398;DHT22;10358;49.590;11.030;2022-08-21T02:21:04;17.20;99.90
20398;DHT22;10358;49.590;11.030;2022-08-21T02:23:30;17.20;99.90
20398;DHT22;10358;49.590;11.030;2022-08-21T02:25:58;17.20;99.90
20398;DHT22;10358;49.590;11.030;2022-08-21T02:28:24;17.30;99.90
20398;DHT22;10358;49.590;11.030;2022-08-21T02:30:50;17.30;99.90
20398;DHT22;10358;49.590;11.030;2022-08-21T02:33:17;17.30;99.90
20398;DHT22;10358;49.590;11.030;2022-08-21T02:35:44;17.30;99.90
20398;DHT22;10358;49.590;11.030;2022-08-21T02:38:14;17.40;99.90
20398;DHT22;10358;49.590;11.030;2022-08-21T02:40:43;17.40;99.90
20398;DHT22;10358;49.590;11.030;2022-08-21T02:43:10;17.30;99.90
20398;DHT22;10358;49.590;11.030;2022-08-21T02:45:36;17.10;99.90
20398;DHT22;10358;49.590;11.030;2022-08-21T02:48:08;16.90;99.90
20398;DHT22;10358;49.590;11.030;2022-08-21T02:50:37;16.90;99.90
20398;DHT22;10358;49.590;11.030;2022-08-21T02:53:04;16.80;99.90
20398;DHT22;10358;49.590;11.030;2022-08-21T02:55:33;16.90;99.90
20398;DHT22;10358;49.590;11.030;2022-08-21T02:58:01;16.90;99.90
20398;DHT22;10358;49.590;11.030;2022-08-21T03:00:28;17.00;99.90
20398;DHT22;10358;49.590;11.030;2022-08-21T03:02:55;17.00;99.90
20398;DHT22;10358;49.590;11.030;2022-08-21T03:05:21;17.00;99.90
20398;DHT22;10358;49.590;11.030;2022-08-21T03:07:47;17.10;99.90
20398;DHT22;10358;49.590;11.030;2022-08-21T03:10:14;17.00;99.90
20398;DHT22;10358;49.590;11.030;2022-08-21T03:12:40;17.00;99.90
20398;DHT22;10358;49.590;11.030;2022-08-21T03:15:09;17.00;99.90
20398;DHT22;10358;49.590;11.030;2022-08-21T03:17:35;16.90;99.90
20398;DHT22;10358;49.590;11.030;2022-08-21T03:20:01;16.90;99.90
20398;DHT22;10358;49.590;11.030;2022-08-21T03:22:28;16.90;99.90
20398;DHT22;10358;49.590;11.030;2022-08-21T03:24:53;16.80;99.90
20398;DHT22;10358;49.590;11.030;2022-08-21T03:27:19;16.80;99.90
20398;DHT22;10358;49.590;11.030;2022-08-21T03:29:45;16.90;99.90
20398;DHT22;10358;49.590;11.030;2022-08-21T03:32:10;16.80;99.90
20398;DHT22;10358;49.590;11.030;2022-08-21T03:34:37;16.80;99.90
20398;DHT22;10358;49.590;11.030;2022-08-21T03:37:04;16.80;99.90
20398;DHT22;10358;49.590;11.030;2022-08-21T03:39:30;16.60;99.90
20398;DHT22;10358;49.590;11.030;2022-08-21T03:41:56;16.40;99.90
20398;DHT22;10358;49.590;11.030;2022-08-21T03:44:21;16.40;99.90
20398;DHT22;10358;49.590;11.030;2022-08-21T03:46:47;16.40;99.90
20398;DHT22;10358;49.590;11.030;2022-08-21T03:49:13;16.50;99.90
20398;DHT22;10358;49.590;11.030;2022-08-21T03:51:39;16.60;99.90
20398;DHT22;10358;49.590;11.030;2022-08-21T03:54:05;16.70;99.90
20398;DHT22;10358;49.590;11.030;2022-08-21T03:56:31;16.80;99.90
20398;DHT22;10358;49.590;11.030;2022-08-21T03:58:57;16.90;99.90
20398;DHT22;10358;49.590;11.030;2022-08-21T04:01:23;16.90;99.90
20398;DHT22;10358;49.590;11.030;2022-08-21T04:03:48;17.00;99.90
20398;DHT22;10358;49.590;11.030;2022-08-21T04:06:14;17.00;99.90
20398;DHT22;10358;49.590;11.030;2022-08-21T04:08:40;17.00;99.90
20398;DHT22;10358;49.590;11.030;2022-08-21T04:11:08;17.00;99.90
20398;DHT22;10358;49.590;11.030;2022-08-21T04:13:36;17.10;99.90
20398;DHT22;10358;49.590;11.030;2022-08-21T04:16:01;17.00;99.90
20398;DHT22;10358;49.590;11.030;2022-08-21T04:18:27;17.00;99.90
20398;DHT22;10358;49.590;11.030;2022-08-21T04:20:53;17.00;99.90
20398;DHT22;10358;49.590;11.030;2022-08-21T04:23:21;17.10;99.90
20398;DHT22;10358;49.590;11.030;2022-08-21T04:25:47;17.10;99.90
20398;DHT22;10358;49.590;11.030;2022-08-21T04:28:12;17.20;99.90
20398;DHT22;10358;49.590;11.030;2022-08-21T04:30:38;17.20;99.90
20398;DHT22;10358;49.590;11.030;2022-08-21T04:33:04;17.20;99.90
20398;DHT22;10358;49.590;11.030;2022-08-21T04:35:29;17.20;99.90
20398;DHT22;10358;49.590;11.030;2022-08-21T04:37:56;17.20;99.90
20398;DHT22;10358;49.590;11.030;2022-08-21T04:40:24;17.20;99.90
20398;DHT22;10358;49.590;11.030;2022-08-21T04:42:56;17.20;99.90
20398;DHT22;10358;49.590;11.030;2022-08-21T04:47:53;17.20;99.90
20398;DHT22;10358;49.590;11.030;2022-08-21T04:50:21;17.10;99.90
20398;DHT22;10358;49.590;11.030;2022-08-21T04:52:47;17.00;99.90
20398;DHT22;10358;49.590;11.030;2022-08-21T04:55:14;17.00;99.90
20398;DHT22;10358;49.590;11.030;2022-08-21T04:57:40;16.90;99.90
20398;DHT22;10358;49.590;11.030;2022-08-21T05:00:06;16.90;99.90
20398;DHT22;10358;49.590;11.030;2022-08-21T05:02:32;16.80;99.90
20398;DHT22;10358;49.590;11.030;2022-08-21T05:04:59;16.80;99.90
20398;DHT22;10358;49.590;11.030;2022-08-21T05:07:27;16.80;99.90
20398;DHT22;10358;49.590;11.030;2022-08-21T05:09:53;16.80;99.90
20398;DHT22;10358;49.590;11.030;2022-08-21T05:12:19;16.80;99.90
20398;DHT22;10358;49.590;11.030;2022-08-21T05:14:45;16.80;99.90
20398;DHT22;10358;49.590;11.030;2022-08-21T05:17:12;16.80;99.90
20398;DHT22;10358;49.590;11.030;2022-08-21T05:19:38;16.90;99.90
20398;DHT22;10358;49.590;11.030;2022-08-21T05:22:04;16.90;99.90
20398;DHT22;10358;49.590;11.030;2022-08-21T05:24:30;17.00;99.90
20398;DHT22;10358;49.590;11.030;2022-08-21T05:26:55;17.00;99.90
20398;DHT22;10358;49.590;11.030;2022-08-21T05:29:21;17.10;99.90
20398;DHT22;10358;49.590;11.030;2022-08-21T05:31:47;17.10;99.90
20398;DHT22;10358;49.590;11.030;2022-08-21T05:34:14;17.10;99.90
20398;DHT22;10358;49.590;11.030;2022-08-21T05:36:40;17.10;99.90
20398;DHT22;10358;49.590;11.030;2022-08-21T05:39:05;17.20;99.90
20398;DHT22;10358;49.590;11.030;2022-08-21T05:41:31;17.20;99.90
20398;DHT22;10358;49.590;11.030;2022-08-21T05:43:56;17.30;99.90
20398;DHT22;10358;49.590;11.030;2022-08-21T05:46:22;17.30;99.90
20398;DHT22;10358;49.590;11.030;2022-08-21T05:48:47;17.30;99.90
20398;DHT22;10358;49.590;11.030;2022-08-21T05:51:15;17.30;99.90
20398;DHT22;10358;49.590;11.030;2022-08-21T05:53:41;17.30;99.90
20398;DHT22;10358;49.590;11.030;2022-08-21T05:56:08;17.50;99.90
20398;DHT22;10358;49.590;11.030;2022-08-21T05:58:34;17.60;99.90
20398;DHT22;10358;49.590;11.030;2022-08-21T06:01:01;17.60;99.90
20398;DHT22;10358;49.590;11.030;2022-08-21T06:03:31;17.50;99.90
20398;DHT22;10358;49.590;11.030;2022-08-21T06:05:57;17.40;99.90
20398;DHT22;10358;49.590;11.030;2022-08-21T06:08:23;17.50;99.90
20398;DHT22;10358;49.590;11.030;2022-08-21T06:10:50;17.50;99.90
20398;DHT22;10358;49.590;11.030;2022-08-21T06:13:17;17.60;99.90
20398;DHT22;10358;49.590;11.030;2022-08-21T06:15:43;17.60;99.90
20398;DHT22;10358;49.590;11.030;2022-08-21T06:18:09;17.60;99.90
20398;DHT22;10358;49.590;11.030;2022-08-21T06:20:35;17.80;99.90
20398;DHT22;10358;49.590;11.030;2022-08-21T06:23:01;17.80;99.90
20398;DHT22;10358;49.590;11.030;2022-08-21T06:25:27;17.90;99.90
20398;DHT22;10358;49.590;11.030;2022-08-21T06:27:52;18.10;99.90
20398;DHT22;10358;49.590;11.030;2022-08-21T06:30:18;18.10;99.90
20398;DHT22;10358;49.590;11.030;2022-08-21T06:32:44;18.20;99.90
20398;DHT22;10358;49.590;11.030;2022-08-21T06:35:10;18.30;99.90
20398;DHT22;10358;49.590;11.030;2022-08-21T06:37:35;18.40;99.90
20398;DHT22;10358;49.590;11.030;2022-08-21T06:40:03;18.50;99.90
20398;DHT22;10358;49.590;11.030;2022-08-21T06:42:28;18.60;99.90
20398;DHT22;10358;49.590;11.030;2022-08-21T06:44:54;18.70;99.90
20398;DHT22;10358;49.590;11.030;2022-08-21T06:47:21;18.90;99.90
20398;DHT22;10358;49.590;11.030;2022-08-21T06:49:47;18.90;99.90
20398;DHT22;10358;49.590;11.030;2022-08-21T06:52:13;19.00;99.90
20398;DHT22;10358;49.590;11.030;2022-08-21T06:54:39;19.00;99.90
20398;DHT22;10358;49.590;11.030;2022-08-21T06:57:05;19.10;99.90
20398;DHT22;10358;49.590;11.030;2022-08-21T06:59:32;19.10;99.90
20398;DHT22;10358;49.590;11.030;2022-08-21T07:01:58;19.00;99.90
20398;DHT22;10358;49.590;11.030;2022-08-21T07:04:24;18.70;99.90
20398;DHT22;10358;49.590;11.030;2022-08-21T07:06:50;18.50;99.90
20398;DHT22;10358;49.590;11.030;2022-08-21T07:09:15;18.30;99.90
20398;DHT22;10358;49.590;11.030;2022-08-21T07:11:41;18.30;99.90
20398;DHT22;10358;49.590;11.030;2022-08-21T07:14:07;18.40;99.90
20398;DHT22;10358;49.590;11.030;2022-08-21T07:16:32;18.40;99.90
20398;DHT22;10358;49.590;11.030;2022-08-21T07:18:58;18.30;99.90
20398;DHT22;10358;49.590;11.030;2022-08-21T07:21:23;18.00;99.90
20398;DHT22;10358;49.590;11.030;2022-08-21T07:23:50;18.00;99.90
20398;DHT22;10358;49.590;11.030;2022-08-21T07:26:20;18.00;99.90
20398;DHT22;10358;49.590;11.030;2022-08-21T07:28:49;18.20;99.90
20398;DHT22;10358;49.590;11.030;2022-08-21T07:31:16;18.40;99.90
20398;DHT22;10358;49.590;11.030;2022-08-21T07:33:42;18.50;99.90
20398;DHT22;10358;49.590;11.030;2022-08-21T07:36:08;18.60;99.90
20398;DHT22;10358;49.590;11.030;2022-08-21T07:38:35;18.60;99.90
20398;DHT22;10358;49.590;11.030;2022-08-21T07:41:02;18.70;99.90
20398;DHT22;10358;49.590;11.030;2022-08-21T07:43:32;18.70;99.90
20398;DHT22;10358;49.590;11.030;2022-08-21T07:45:57;18.50;99.90
20398;DHT22;10358;49.590;11.030;2022-08-21T07:48:23;18.40;99.90
20398;DHT22;10358;49.590;11.030;2022-08-21T07:50:50;18.40;99.90
20398;DHT22;10358;49.590;11.030;2022-08-21T07:53:16;18.40;99.90
20398;DHT22;10358;49.590;11.030;2022-08-21T07:55:41;18.40;99.90
20398;DHT22;10358;49.590;11.030;2022-08-21T07:58:07;18.50;99.90
20398;DHT22;10358;49.590;11.030;2022-08-21T08:00:33;18.30;99.90
20398;DHT22;10358;49.590;11.030;2022-08-21T08:03:00;18.20;99.90
20398;DHT22;10358;49.590;11.030;2022-08-21T08:05:29;18.10;99.90
20398;DHT22;10358;49.590;11.030;2022-08-21T08:07:55;18.20;99.90
20398;DHT22;10358;49.590;11.030;2022-08-21T08:10:22;18.30;99.90
20398;DHT22;10358;49.590;11.030;2022-08-21T08:12:49;18.30;99.90
20398;DHT22;10358;49.590;11.030;2022-08-21T08:15:19;18.30;99.90
20398;DHT22;10358;49.590;11.030;2022-08-21T08:17:45;18.40;99.90
20398;DHT22;10358;49.590;11.030;2022-08-21T08:20:12;18.40;99.90
20398;DHT22;10358;49.590;11.030;2022-08-21T08:22:38;18.40;99.90
20398;DHT22;10358;49.590;11.030;2022-08-21T08:25:05;18.60;99.90
20398;DHT22;10358;49.590;11.030;2022-08-21T08:27:31;18.80;99.90
20398;DHT22;10358;49.590;11.030;2022-08-21T08:29:59;18.90;99.90
20398;DHT22;10358;49.590;11.030;2022-08-21T08:32:25;19.10;99.90
20398;DHT22;10358;49.590;11.030;2022-08-21T08:34:50;19.30;99.90
20398;DHT22;10358;49.590;11.030;2022-08-21T08:37:18;19.20;99.90
20398;DHT22;10358;49.590;11.030;2022-08-21T08:39:44;19.30;99.90
20398;DHT22;10358;49.590;11.030;2022-08-21T08:42:26;19.50;99.90
20398;DHT22;10358;49.590;11.030;2022-08-21T08:45:16;19.70;99.90
20398;DHT22;10358;49.590;11.030;2022-08-21T08:47:46;20.00;99.90
20398;DHT22;10358;49.590;11.030;2022-08-21T08:50:22;20.10;99.90
20398;DHT22;10358;49.590;11.030;2022-08-21T08:52:53;20.20;99.90
20398;DHT22;10358;49.590;11.030;2022-08-21T08:55:32;20.00;99.90
20398;DHT22;10358;49.590;11.030;2022-08-21T08:57:57;19.70;99.90
20398;DHT22;10358;49.590;11.030;2022-08-21T09:00:24;19.70;99.90
20398;DHT22;10358;49.590;11.030;2022-08-21T09:02:53;19.80;99.90
20398;DHT22;10358;49.590;11.030;2022-08-21T09:05:42;19.90;99.90
20398;DHT22;10358;49.590;11.030;2022-08-21T09:11:27;20.20;99.90
20398;DHT22;10358;49.590;11.030;2022-08-21T09:14:10;20.50;99.90
20398;DHT22;10358;49.590;11.030;2022-08-21T09:17:01;20.70;99.90
20398;DHT22;10358;49.590;11.030;2022-08-21T09:19:39;20.70;99.90
20398;DHT22;10358;49.590;11.030;2022-08-21T09:25:15;20.30;99.90
20398;DHT22;10358;49.590;11.030;2022-08-21T09:27:43;20.20;99.90
20398;DHT22;10358;49.590;11.030;2022-08-21T09:30:10;20.00;99.90
20398;DHT22;10358;49.590;11.030;2022-08-21T09:32:37;20.20;99.90
20398;DHT22;10358;49.590;11.030;2022-08-21T09:35:12;20.30;99.90
20398;DHT22;10358;49.590;11.030;2022-08-21T09:45:32;20.80;99.90
20398;DHT22;10358;49.590;11.030;2022-08-21T09:48:12;21.00;99.90
20398;DHT22;10358;49.590;11.030;2022-08-21T09:50:40;21.30;99.90
20398;DHT22;10358;49.590;11.030;2022-08-21T09:53:18;21.60;99.90
20398;DHT22;10358;49.590;11.030;2022-08-21T09:55:57;21.90;99.90
20398;DHT22;10358;49.590;11.030;2022-08-21T09:58:45;22.10;99.90
20398;DHT22;10358;49.590;11.030;2022-08-21T10:01:23;22.40;99.90
20398;DHT22;10358;49.590;11.030;2022-08-21T10:04:02;22.60;99.90
20398;DHT22;10358;49.590;11.030;2022-08-21T10:06:28;22.70;99.90
20398;DHT22;10358;49.590;11.030;2022-08-21T10:09:12;22.90;99.90
20398;DHT22;10358;49.590;11.030;2022-08-21T10:11:43;23.00;99.90
20398;DHT22;10358;49.590;11.030;2022-08-21T10:17:20;23.20;99.90
20398;DHT22;10358;49.590;11.030;2022-08-21T10:20:03;23.20;99.90
20398;DHT22;10358;49.590;11.030;2022-08-21T10:25:31;23.00;99.90
20398;DHT22;10358;49.590;11.030;2022-08-21T10:30:56;22.40;99.90
20398;DHT22;10358;49.590;11.030;2022-08-21T10:36:18;21.90;99.90
20398;DHT22;10358;49.590;11.030;2022-08-21T10:44:05;21.50;99.90
20398;DHT22;10358;49.590;11.030;2022-08-21T10:46:57;21.60;99.90
20398;DHT22;10358;49.590;11.030;2022-08-21T10:54:47;22.10;99.90
20398;DHT22;10358;49.590;11.030;2022-08-21T11:00:03;22.20;99.90
20398;DHT22;10358;49.590;11.030;2022-08-21T11:02:40;22.10;99.90
20398;DHT22;10358;49.590;11.030;2022-08-21T11:05:31;22.10;99.90
20398;DHT22;10358;49.590;11.030;2022-08-21T11:08:09;22.00;99.90
20398;DHT22;10358;49.590;11.030;2022-08-21T11:11:26;21.90;99.90
20398;DHT22;10358;49.590;11.030;2022-08-21T11:13:50;22.10;99.90
20398;DHT22;10358;49.590;11.030;2022-08-21T11:16:42;22.40;99.90
20398;DHT22;10358;49.590;11.030;2022-08-21T11:29:51;23.10;99.90
20398;DHT22;10358;49.590;11.030;2022-08-21T11:49:15;23.80;97.10
20398;DHT22;10358;49.590;11.030;2022-08-21T11:54:36;23.90;94.80
20398;DHT22;10358;49.590;11.030;2022-08-21T12:00:07;23.70;92.00
20398;DHT22;10358;49.590;11.030;2022-08-21T12:02:39;23.70;91.50
20398;DHT22;10358;49.590;11.030;2022-08-21T12:05:09;23.70;91.40
20398;DHT22;10358;49.590;11.030;2022-08-21T12:07:40;23.80;91.40
20398;DHT22;10358;49.590;11.030;2022-08-21T12:10:17;24.00;91.10
20398;DHT22;10358;49.590;11.030;2022-08-21T12:12:46;24.10;90.50
20398;DHT22;10358;49.590;11.030;2022-08-21T12:18:04;24.50;85.50
20398;DHT22;10358;49.590;11.030;2022-08-21T12:23:27;24.70;79.80
20398;DHT22;10358;49.590;11.030;2022-08-21T12:26:03;24.70;78.30
20398;DHT22;10358;49.590;11.030;2022-08-21T12:28:34;24.90;77.70
20398;DHT22;10358;49.590;11.030;2022-08-21T12:31:00;25.10;77.50
20398;DHT22;10358;49.590;11.030;2022-08-21T12:34:11;25.20;76.20
20398;DHT22;10358;49.590;11.030;2022-08-21T12:36:21;25.50;71.80
20398;DHT22;10358;49.590;11.030;2022-08-21T12:39:01;25.60;67.20
20398;DHT22;10358;49.590;11.030;2022-08-21T12:41:32;25.70;66.90
20398;DHT22;10358;49.590;11.030;2022-08-21T12:44:08;25.90;66.80
20398;DHT22;10358;49.590;11.030;2022-08-21T12:46:39;26.00;64.30
20398;DHT22;10358;49.590;11.030;2022-08-21T12:51:55;25.80;59.00
20398;DHT22;10358;49.590;11.030;2022-08-21T12:54:28;25.70;60.00
20398;DHT22;10358;49.590;11.030;2022-08-21T12:57:03;25.70;60.00
20398;DHT22;10358;49.590;11.030;2022-08-21T12:59:30;25.80;60.60
20398;DHT22;10358;49.590;11.030;2022-08-21T13:01:57;25.90;59.80
20398;DHT22;10358;49.590;11.030;2022-08-21T13:04:35;26.00;59.20
20398;DHT22;10358;49.590;11.030;2022-08-21T13:07:13;26.20;59.60
20398;DHT22;10358;49.590;11.030;2022-08-21T13:09:53;26.50;59.10
20398;DHT22;10358;49.590;11.030;2022-08-21T13:12:21;26.90;59.00
20398;DHT22;10358;49.590;11.030;2022-08-21T13:14:48;26.80;57.60
20398;DHT22;10358;49.590;11.030;2022-08-21T13:17:21;26.70;58.10
20398;DHT22;10358;49.590;11.030;2022-08-21T13:20:02;26.90;58.60
20398;DHT22;10358;49.590;11.030;2022-08-21T13:22:28;27.40;57.70
20398;DHT22;10358;49.590;11.030;2022-08-21T13:24:54;27.80;57.80
20398;DHT22;10358;49.590;11.030;2022-08-21T13:27:21;28.20;56.90
20398;DHT22;10358;49.590;11.030;2022-08-21T13:29:48;28.50;56.10
20398;DHT22;10358;49.590;11.030;2022-08-21T13:32:26;28.60;55.30
20398;DHT22;10358;49.590;11.030;2022-08-21T13:34:53;28.70;53.40
20398;DHT22;10358;49.590;11.030;2022-08-21T13:37:21;28.40;53.50
20398;DHT22;10358;49.590;11.030;2022-08-21T13:39:51;28.10;53.80
20398;DHT22;10358;49.590;11.030;2022-08-21T13:42:17;28.10;53.80
20398;DHT22;10358;49.590;11.030;2022-08-21T13:44:45;28.30;53.80
20398;DHT22;10358;49.590;11.030;2022-08-21T13:47:14;28.50;52.90
20398;DHT22;10358;49.590;11.030;2022-08-21T13:49:43;28.80;52.80
20398;DHT22;10358;49.590;11.030;2022-08-21T13:52:16;29.00;52.40
20398;DHT22;10358;49.590;11.030;2022-08-21T13:54:43;29.10;50.10
20398;DHT22;10358;49.590;11.030;2022-08-21T13:57:31;28.90;49.40
20398;DHT22;10358;49.590;11.030;2022-08-21T14:00:12;28.90;48.60
20398;DHT22;10358;49.590;11.030;2022-08-21T14:02:40;28.90;46.10
20398;DHT22;10358;49.590;11.030;2022-08-21T14:05:08;28.60;46.50
20398;DHT22;10358;49.590;11.030;2022-08-21T14:07:41;28.40;47.30
20398;DHT22;10358;49.590;11.030;2022-08-21T14:10:17;28.40;47.70
20398;DHT22;10358;49.590;11.030;2022-08-21T14:12:51;28.60;47.50
20398;DHT22;10358;49.590;11.030;2022-08-21T14:15:19;28.80;47.60
20398;DHT22;10358;49.590;11.030;2022-08-21T14:17:47;29.00;47.40
20398;DHT22;10358;49.590;11.030;2022-08-21T14:20:31;29.40;46.50
20398;DHT22;10358;49.590;11.030;2022-08-21T14:22:57;29.80;46.80
20398;DHT22;10358;49.590;11.030;2022-08-21T14:27:52;30.50;45.10
20398;DHT22;10358;49.590;11.030;2022-08-21T14:32:52;30.70;40.90
20398;DHT22;10358;49.590;11.030;2022-08-21T14:35:19;30.90;41.20
20398;DHT22;10358;49.590;11.030;2022-08-21T14:37:46;31.20;40.90
20398;DHT22;10358;49.590;11.030;2022-08-21T14:40:12;31.40;39.80
20398;DHT22;10358;49.590;11.030;2022-08-21T14:42:39;31.60;39.50
20398;DHT22;10358;49.590;11.030;2022-08-21T14:45:14;31.80;39.80
20398;DHT22;10358;49.590;11.030;2022-08-21T14:47:40;32.00;39.60
20398;DHT22;10358;49.590;11.030;2022-08-21T14:50:06;32.50;39.20
20398;DHT22;10358;49.590;11.030;2022-08-21T14:52:32;32.90;43.50
20398;DHT22;10358;49.590;11.030;2022-08-21T14:54:57;33.40;37.90
20398;DHT22;10358;49.590;11.030;2022-08-21T14:57:24;33.60;36.70
20398;DHT22;10358;49.590;11.030;2022-08-21T14:59:51;33.70;36.10
20398;DHT22;10358;49.590;11.030;2022-08-21T15:02:17;33.90;35.40
20398;DHT22;10358;49.590;11.030;2022-08-21T15:04:42;33.90;34.60
20398;DHT22;10358;49.590;11.030;2022-08-21T15:07:08;34.00;34.30
20398;DHT22;10358;49.590;11.030;2022-08-21T15:09:34;33.80;34.80
20398;DHT22;10358;49.590;11.030;2022-08-21T15:12:01;33.70;34.60
20398;DHT22;10358;49.590;11.030;2022-08-21T15:14:29;33.70;35.10
20398;DHT22;10358;49.590;11.030;2022-08-21T15:16:55;34.20;34.70
20398;DHT22;10358;49.590;11.030;2022-08-21T15:19:21;34.30;32.40
20398;DHT22;10358;49.590;11.030;2022-08-21T15:21:46;33.60;34.00
20398;DHT22;10358;49.590;11.030;2022-08-21T15:24:12;33.50;33.50
20398;DHT22;10358;49.590;11.030;2022-08-21T15:26:37;33.60;33.50
20398;DHT22;10358;49.590;11.030;2022-08-21T15:29:05;33.70;32.60
20398;DHT22;10358;49.590;11.030;2022-08-21T15:31:31;34.00;32.30
20398;DHT22;10358;49.590;11.030;2022-08-21T15:33:57;34.40;31.80
20398;DHT22;10358;49.590;11.030;2022-08-21T15:36:22;34.60;33.60
20398;DHT22;10358;49.590;11.030;2022-08-21T15:38:48;34.70;30.60
20398;DHT22;10358;49.590;11.030;2022-08-21T15:41:14;34.60;30.70
20398;DHT22;10358;49.590;11.030;2022-08-21T15:43:45;34.50;30.90
20398;DHT22;10358;49.590;11.030;2022-08-21T15:46:13;34.80;30.90
20398;DHT22;10358;49.590;11.030;2022-08-21T15:48:39;35.10;30.80
20398;DHT22;10358;49.590;11.030;2022-08-21T15:53:30;35.60;29.50
20398;DHT22;10358;49.590;11.030;2022-08-21T15:56:00;35.50;30.00
20398;DHT22;10358;49.590;11.030;2022-08-21T15:58:27;35.60;29.70
20398;DHT22;10358;49.590;11.030;2022-08-21T16:00:52;35.60;29.80
20398;DHT22;10358;49.590;11.030;2022-08-21T16:03:18;35.60;29.70
20398;DHT22;10358;49.590;11.030;2022-08-21T16:05:47;35.70;29.80
20398;DHT22;10358;49.590;11.030;2022-08-21T16:08:18;35.90;29.60
20398;DHT22;10358;49.590;11.030;2022-08-21T16:10:44;36.20;29.60
20398;DHT22;10358;49.590;11.030;2022-08-21T16:13:16;36.50;29.00
20398;DHT22;10358;49.590;11.030;2022-08-21T16:15:43;36.10;29.20
20398;DHT22;10358;49.590;11.030;2022-08-21T16:18:09;36.00;29.70
20398;DHT22;10358;49.590;11.030;2022-08-21T16:20:35;36.10;29.60
20398;DHT22;10358;49.590;11.030;2022-08-21T16:23:00;36.00;29.20
20398;DHT22;10358;49.590;11.030;2022-08-21T16:25:26;35.80;29.30
20398;DHT22;10358;49.590;11.030;2022-08-21T16:27:55;35.60;29.40
20398;DHT22;10358;49.590;11.030;2022-08-21T16:30:22;35.50;29.30
20398;DHT22;10358;49.590;11.030;2022-08-21T16:32:48;35.50;29.50
20398;DHT22;10358;49.590;11.030;2022-08-21T16:35:17;35.50;29.60
20398;DHT22;10358;49.590;11.030;2022-08-21T16:37:43;35.60;29.60
20398;DHT22;10358;49.590;11.030;2022-08-21T16:40:09;35.80;29.70
20398;DHT22;10358;49.590;11.030;2022-08-21T16:42:35;35.70;29.50
20398;DHT22;10358;49.590;11.030;2022-08-21T16:45:04;35.70;29.40
20398;DHT22;10358;49.590;11.030;2022-08-21T16:47:30;35.50;29.50
20398;DHT22;10358;49.590;11.030;2022-08-21T16:49:56;35.60;29.60
20398;DHT22;10358;49.590;11.030;2022-08-21T16:52:22;35.50;29.60
20398;DHT22;10358;49.590;11.030;2022-08-21T16:54:48;35.60;29.50